Time;durP1;ratioP1;P1;durP2;ratioP2;P2;SDS_P1;SDS_P2;PMS_P1;PMS_P2;Temp;Humidity;BMP_temperature;BMP_pressure;BME280_temperature;BME280_humidity;BME280_pressure;Samples;Min_cycle;Max_cycle;Signal;HPM_P1;HPM_P2
2023/02/07 00:00:22;;;;;;;19.85;17.65;;;;;;;1.03;80.30;96554.75;5052558;28;20112;-61
2023/02/07 00:02:48;;;;;;;17.38;15.32;;;;;;;1.09;80.46;96556.22;5048115;28;20033;-63
2023/02/07 00:05:14;;;;;;;18.55;15.35;;;;;;;1.12;80.36;96563.91;5048422;28;20021;-62
2023/02/07 00:07:40;;;;;;;16.20;14.45;;;;;;;1.13;80.78;96561.22;5047597;28;20079;-63
2023/02/07 00:10:06;;;;;;;15.85;14.15;;;;;;;1.07;80.94;96564.06;5050136;28;20562;-63
2023/02/07 00:12:32;;;;;;;17.83;15.98;;;;;;;1.04;81.12;96569.38;5050547;28;20029;-63
2023/02/07 00:14:58;;;;;;;17.65;15.30;;;;;;;1.03;81.54;96582.41;5051816;28;20775;-63
2023/02/07 00:17:23;;;;;;;16.33;14.63;;;;;;;0.99;81.61;96586.84;5050193;28;20033;-63
2023/02/07 00:19:49;;;;;;;18.27;15.50;;;;;;;1.08;81.53;96576.13;5049019;28;20509;-63
2023/02/07 00:22:14;;;;;;;16.38;14.65;;;;;;;1.08;80.96;96591.69;5050190;28;20037;-73
2023/02/07 00:24:40;;;;;;;15.55;13.88;;;;;;;1.20;79.62;96597.28;5052416;28;20499;-76
2023/02/07 00:27:05;;;;;;;17.08;15.35;;;;;;;1.26;78.85;96600.47;5051723;28;20116;-76
2023/02/07 00:29:31;;;;;;;15.80;14.20;;;;;;;1.29;78.70;96610.72;5053434;28;20041;-75
2023/02/07 00:31:57;;;;;;;13.82;12.50;;;;;;;1.18;79.10;96612.94;5049022;28;20040;-75
2023/02/07 00:34:22;;;;;;;14.70;13.32;;;;;;;1.39;78.63;96610.38;5051660;28;20033;-74
2023/02/07 00:36:47;;;;;;;15.40;13.93;;;;;;;1.30;78.16;96606.41;5048637;28;20029;-76
2023/02/07 00:39:15;;;;;;;14.57;13.10;;;;;;;1.20;78.12;96590.34;5053142;28;20495;-62
2023/02/07 00:41:41;;;;;;;14.82;13.43;;;;;;;1.20;78.62;96595.56;5057623;28;20036;-63
2023/02/07 00:44:07;;;;;;;15.10;13.50;;;;;;;1.11;78.86;96583.78;5052854;28;20036;-63
2023/02/07 00:46:34;;;;;;;15.55;14.05;;;;;;;1.16;79.61;96583.63;5059205;28;20033;-63
2023/02/07 00:48:59;;;;;;;16.13;14.35;;;;;;;1.11;79.07;96583.78;5053553;28;20033;-63
2023/02/07 00:51:25;;;;;;;14.48;13.07;;;;;;;1.00;79.60;96589.41;5038984;28;20486;-63
2023/02/07 00:53:55;;;;;;;14.20;12.80;;;;;;;1.06;79.86;96584.88;5057962;28;20567;-63
2023/02/07 00:56:23;;;;;;;14.77;13.27;;;;;;;1.03;80.38;96585.00;5067438;28;20059;-63
2023/02/07 00:58:48;;;;;;;14.15;12.68;;;;;;;1.13;78.96;96583.75;5064858;28;20044;-62
2023/02/07 01:01:13;;;;;;;14.20;12.90;;;;;;;1.00;79.55;96579.03;5057975;28;20499;-75
2023/02/07 01:03:39;;;;;;;14.77;13.35;;;;;;;1.18;78.61;96581.81;5060604;28;20554;-75
2023/02/07 01:06:06;;;;;;;14.43;12.90;;;;;;;1.07;79.44;96583.97;5059229;28;20037;-75
2023/02/07 01:08:32;;;;;;;17.92;16.23;;;;;;;0.97;79.97;96584.34;5040405;28;20076;-75
2023/02/07 01:11:01;;;;;;;15.55;13.98;;;;;;;0.93;81.02;96585.38;5061217;28;20060;-74
2023/02/07 01:13:27;;;;;;;15.02;13.57;;;;;;;1.06;80.21;96577.09;5067199;28;20032;-74
2023/02/07 01:15:52;;;;;;;15.73;14.13;;;;;;;0.98;80.96;96569.63;5050680;28;20029;-75
2023/02/07 01:18:17;;;;;;;14.18;12.77;;;;;;;0.90;80.89;96585.50;5065190;28;20086;-75
2023/02/07 01:20:43;;;;;;;14.40;12.93;;;;;;;0.85;80.76;96577.91;5062799;28;20040;-62
2023/02/07 01:23:10;;;;;;;14.93;13.43;;;;;;;0.84;80.51;96568.44;5070255;28;20034;-62
2023/02/07 01:25:37;;;;;;;15.02;13.52;;;;;;;0.79;80.87;96565.19;5061074;28;20071;-61
2023/02/07 01:28:03;;;;;;;14.63;12.93;;;;;;;0.97;79.91;96562.75;5056335;28;20045;-61
2023/02/07 01:30:28;;;;;;;20.08;14.05;;;;;;;0.85;80.56;96562.34;5064430;28;20051;-62
2023/02/07 01:32:53;;;;;;;15.32;13.90;;;;;;;0.76;80.73;96560.09;5059881;28;21372;-62
2023/02/07 01:35:19;;;;;;;15.32;13.70;;;;;;;0.73;80.95;96559.38;5062907;28;20115;-61
2023/02/07 01:37:44;;;;;;;16.30;14.63;;;;;;;0.84;81.51;96563.25;5061813;28;20052;-62
2023/02/07 01:40:11;;;;;;;15.70;14.30;;;;;;;0.70;82.03;96560.34;5054752;28;20041;-62
2023/02/07 01:42:37;;;;;;;15.38;13.77;;;;;;;0.71;82.08;96569.81;5062477;28;20450;-61
2023/02/07 01:45:06;;;;;;;15.93;14.35;;;;;;;0.49;83.47;96570.63;5066486;28;20040;-62
2023/02/07 01:47:32;;;;;;;17.08;15.30;;;;;;;0.42;83.54;96572.59;5060169;28;20036;-62
2023/02/07 01:49:58;;;;;;;15.60;14.07;;;;;;;0.27;83.82;96568.84;5059270;28;20090;-62
2023/02/07 01:52:29;;;;;;;15.68;14.18;;;;;;;0.17;84.27;96577.00;5057475;28;20032;-62
2023/02/07 01:54:59;;;;;;;17.00;15.30;;;;;;;0.10;84.33;96571.22;5055621;28;20112;-62
2023/02/07 01:57:25;;;;;;;16.48;14.65;;;;;;;0.04;84.78;96569.72;5059142;28;20062;-61
2023/02/07 01:59:52;;;;;;;16.75;15.15;;;;;;;0.01;84.41;96577.59;5064068;28;20118;-62
2023/02/07 02:02:20;;;;;;;13.88;12.48;;;;;;;-0.01;84.83;96574.19;5066356;28;20029;-62
2023/02/07 02:04:48;;;;;;;16.83;13.60;;;;;;;-0.03;85.81;96571.66;5053744;28;20518;-62
2023/02/07 02:07:14;;;;;;;20.98;18.98;;;;;;;-0.08;85.50;96568.41;5058601;28;20449;-62
2023/02/07 02:09:40;;;;;;;16.73;15.13;;;;;;;-0.18;86.46;96575.66;5064720;28;20071;-62
2023/02/07 02:12:33;;;;;;;17.45;15.57;;;;;;;-0.27;87.58;96567.38;5063973;28;20410;-62
2023/02/07 02:15:20;;;;;;;15.48;14.00;;;;;;;-0.32;88.55;96570.09;5058713;28;20098;-64
2023/02/07 02:17:57;;;;;;;16.00;14.40;;;;;;;-0.31;88.91;96572.66;5056831;28;20051;-75
2023/02/07 02:20:43;;;;;;;15.52;13.95;;;;;;;-0.30;89.04;96578.66;5057719;28;20037;-62
2023/02/07 02:23:19;;;;;;;14.57;13.13;;;;;;;-0.31;89.13;96588.19;5064088;28;20067;-62
2023/02/07 02:25:44;;;;;;;15.88;14.38;;;;;;;-0.28;88.69;96586.38;5056497;28;20040;-62
2023/02/07 02:28:40;;;;;;;16.15;14.52;;;;;;;-0.27;88.66;96593.25;5054594;28;20051;-62
2023/02/07 02:31:25;;;;;;;16.67;14.07;;;;;;;-0.26;89.33;96607.88;5057683;28;20048;-62
2023/02/07 02:34:10;;;;;;;16.77;15.10;;;;;;;-0.24;88.58;96601.72;5065879;28;20422;-61
2023/02/07 02:36:41;;;;;;;16.97;14.03;;;;;;;-0.25;89.60;96612.97;5069009;28;20094;-61
2023/02/07 02:39:06;;;;;;;16.27;14.65;;;;;;;-0.27;89.95;96612.19;5054309;28;20781;-74
2023/02/07 02:41:46;;;;;;;14.75;13.35;;;;;;;-0.28;91.02;96612.25;5061569;28;20036;-75
2023/02/07 02:44:20;;;;;;;16.77;14.98;;;;;;;-0.28;90.05;96613.09;5064923;28;20072;-74
2023/02/07 02:46:46;;;;;;;15.90;14.47;;;;;;;-0.22;89.58;96614.63;5062857;28;21280;-74
2023/02/07 02:49:13;;;;;;;15.80;13.45;;;;;;;-0.12;89.23;96622.94;5065336;28;20103;-74
2023/02/07 02:51:39;;;;;;;17.02;14.60;;;;;;;-0.12;89.88;96623.75;5058343;28;20067;-74
2023/02/07 02:54:26;;;;;;;20.23;16.52;;;;;;;-0.15;91.35;96622.13;5064327;28;20032;-64
2023/02/07 02:57:14;;;;;;;20.75;17.00;;;;;;;-0.22;92.14;96625.84;5060288;28;20037;-61
2023/02/07 02:59:54;;;;;;;23.13;19.15;;;;;;;-0.22;91.34;96623.25;5053771;28;20082;-62
2023/02/07 03:02:58;;;;;;;19.67;17.15;;;;;;;-0.20;91.04;96625.78;5061435;28;20047;-61
2023/02/07 03:05:52;;;;;;;18.52;16.13;;;;;;;-0.18;91.51;96619.66;5055329;28;20036;-62
2023/02/07 03:08:23;;;;;;;17.42;15.27;;;;;;;-0.21;92.07;96621.50;5058007;28;20099;-62
2023/02/07 03:11:05;;;;;;;18.73;16.08;;;;;;;-0.36;93.43;96626.28;5065306;28;20036;-62
2023/02/07 03:13:49;;;;;;;18.30;16.30;;;;;;;-0.45;93.82;96624.84;5057988;28;20056;-63
2023/02/07 03:16:42;;;;;;;18.42;16.52;;;;;;;-0.46;93.62;96620.56;5062661;28;20033;-74
2023/02/07 03:19:17;;;;;;;17.50;15.80;;;;;;;-0.39;93.17;96620.38;5057530;28;20086;-63
2023/02/07 03:21:49;;;;;;;17.58;15.88;;;;;;;-0.41;93.16;96633.38;5061149;28;20032;-63
2023/02/07 03:24:20;;;;;;;16.58;14.88;;;;;;;-0.37;92.94;96627.19;5057649;28;20462;-64
2023/02/07 03:26:49;;;;;;;17.75;15.88;;;;;;;-0.32;92.51;96627.91;5051725;28;20032;-63
2023/02/07 03:29:16;;;;;;;17.15;15.45;;;;;;;-0.32;93.11;96616.69;5059954;28;20515;-64
2023/02/07 03:31:45;;;;;;;17.30;15.18;;;;;;;-0.33;93.59;96625.34;5058869;28;20514;-63
2023/02/07 03:34:15;;;;;;;16.30;14.68;;;;;;;-0.33;93.04;96622.75;5053484;28;20053;-63
2023/02/07 03:37:05;;;;;;;16.20;14.48;;;;;;;-0.41;93.45;96615.25;5056563;28;20086;-61
2023/02/07 03:39:31;;;;;;;17.27;14.95;;;;;;;-0.41;92.80;96622.19;5056137;28;20047;-61
2023/02/07 03:42:35;;;;;;;16.92;15.20;;;;;;;-0.47;93.14;96610.28;5055990;28;20565;-61
2023/02/07 03:45:04;;;;;;;18.25;14.65;;;;;;;-0.59;93.81;96604.63;5056901;28;20036;-61
2023/02/07 03:47:29;;;;;;;17.30;15.50;;;;;;;-0.71;93.89;96607.63;5058335;28;20080;-61
2023/02/07 03:49:55;;;;;;;17.00;14.93;;;;;;;-0.77;93.93;96611.25;5062269;28;20519;-61
2023/02/07 03:52:20;;;;;;;17.38;15.50;;;;;;;-0.86;94.23;96614.16;5055471;28;20060;-61
2023/02/07 03:54:46;;;;;;;17.08;15.48;;;;;;;-0.93;94.48;96616.06;5057580;28;20033;-62
2023/02/07 03:57:11;;;;;;;16.80;15.15;;;;;;;-1.03;94.88;96610.34;5057007;28;20605;-62
2023/02/07 03:59:36;;;;;;;16.13;14.10;;;;;;;-1.08;94.93;96624.28;5053954;28;20418;-62
2023/02/07 04:02:02;;;;;;;29.38;16.38;;;;;;;-1.11;95.03;96626.97;5060214;28;20059;-62
2023/02/07 04:04:28;;;;;;;18.70;16.85;;;;;;;-1.13;95.72;96626.19;5054830;28;20041;-61
2023/02/07 04:06:54;;;;;;;19.45;17.52;;;;;;;-1.04;94.39;96631.91;5059183;28;20040;-62
2023/02/07 04:09:19;;;;;;;19.67;17.35;;;;;;;-1.09;94.90;96640.69;5054813;28;20406;-62
2023/02/07 04:11:48;;;;;;;20.13;17.95;;;;;;;-1.11;94.75;96653.66;5057905;28;20049;-74
2023/02/07 04:14:13;;;;;;;21.08;18.73;;;;;;;-1.23;95.82;96651.47;5060773;28;20529;-62
2023/02/07 04:16:39;;;;;;;21.13;18.38;;;;;;;-1.33;96.26;96645.72;5066009;28;20065;-74
2023/02/07 04:19:04;;;;;;;20.48;17.67;;;;;;;-1.35;95.94;96660.41;5058091;28;20048;-76
2023/02/07 04:21:29;;;;;;;19.45;17.35;;;;;;;-1.39;96.27;96664.81;5051479;28;20067;-73
2023/02/07 04:23:55;;;;;;;19.25;16.50;;;;;;;-1.38;95.89;96651.00;5062959;28;20040;-74
2023/02/07 04:26:20;;;;;;;20.90;16.98;;;;;;;-1.41;96.26;96665.78;5053945;28;20037;-73
2023/02/07 04:28:45;;;;;;;23.85;19.70;;;;;;;-1.46;96.70;96668.47;5052126;28;20044;-74
2023/02/07 04:31:11;;;;;;;21.25;19.08;;;;;;;-1.45;96.79;96650.34;5058556;28;20509;-63
2023/02/07 04:33:36;;;;;;;22.85;20.35;;;;;;;-1.40;95.80;96663.13;5065070;28;20033;-62
2023/02/07 04:36:03;;;;;;;22.95;20.58;;;;;;;-1.45;96.42;96668.41;5071866;28;20039;-64
2023/02/07 04:38:29;;;;;;;23.88;20.30;;;;;;;-1.48;96.22;96676.25;5065713;28;20043;-63
2023/02/07 04:41:03;;;;;;;23.77;20.33;;;;;;;-1.49;97.15;96664.25;5064578;28;20033;-63
2023/02/07 04:43:30;;;;;;;23.08;19.75;;;;;;;-1.64;98.02;96675.84;5072039;28;20498;-63
2023/02/07 04:45:55;;;;;;;23.38;20.42;;;;;;;-1.39;96.21;96685.50;5066481;28;20024;-63
2023/02/07 04:48:21;;;;;;;27.77;22.13;;;;;;;-1.35;94.45;96678.50;5059038;28;20521;-63
2023/02/07 04:50:46;;;;;;;22.63;19.38;;;;;;;-1.28;94.36;96685.19;5064647;28;20043;-73
2023/02/07 04:53:12;;;;;;;23.30;19.35;;;;;;;-1.50;95.66;96693.53;5063271;28;20072;-62
2023/02/07 04:55:37;;;;;;;22.75;18.50;;;;;;;-1.46;96.25;96704.66;5064185;28;20029;-61
2023/02/07 04:58:04;;;;;;;24.10;19.65;;;;;;;-1.59;96.74;96711.91;5058121;28;20048;-61
2023/02/07 05:00:30;;;;;;;22.25;16.42;;;;;;;-0.97;92.51;96710.13;5059675;28;20068;-61
2023/02/07 05:02:55;;;;;;;18.90;17.00;;;;;;;-1.12;92.94;96706.25;5062157;28;20068;-61
2023/02/07 05:05:20;;;;;;;21.48;18.65;;;;;;;-1.30;93.44;96705.91;5060474;28;20043;-61
2023/02/07 05:07:46;;;;;;;22.33;17.27;;;;;;;-1.52;96.15;96715.16;5060282;28;20502;-61
2023/02/07 05:10:11;;;;;;;18.02;16.20;;;;;;;-1.63;96.54;96718.88;5060723;28;20033;-64
2023/02/07 05:12:36;;;;;;;19.05;17.05;;;;;;;-1.73;97.20;96718.28;5062702;28;20025;-74
2023/02/07 05:15:02;;;;;;;19.25;17.13;;;;;;;-1.70;97.15;96726.81;5065854;28;20130;-62
2023/02/07 05:17:29;;;;;;;21.50;17.98;;;;;;;-1.91;98.79;96719.59;5054683;28;20041;-62
2023/02/07 05:19:54;;;;;;;17.70;15.95;;;;;;;-1.59;96.55;96719.63;5058249;28;20036;-62
2023/02/07 05:22:20;;;;;;;21.50;19.20;;;;;;;-1.79;97.51;96739.09;5061375;28;20474;-62
2023/02/07 05:24:45;;;;;;;24.20;20.85;;;;;;;-1.69;96.45;96741.41;5067356;28;20040;-62
2023/02/07 05:27:11;;;;;;;23.05;20.60;;;;;;;-1.33;94.48;96739.59;5057293;28;20048;-62
2023/02/07 05:29:36;;;;;;;17.52;15.73;;;;;;;-1.07;91.60;96755.22;5054453;28;20052;-62
2023/02/07 05:34:45;;;;;;;18.67;16.88;;;;;;;-1.30;92.39;96761.91;5060711;28;20047;-62
2023/02/07 05:37:10;;;;;;;18.85;16.92;;;;;;;-1.50;93.31;96770.19;5060525;28;20058;-62
2023/02/07 05:39:36;;;;;;;20.13;18.00;;;;;;;-1.52;93.60;96777.97;5065887;28;20045;-62
2023/02/07 05:42:01;;;;;;;18.95;17.13;;;;;;;-1.68;94.01;96782.72;5066629;28;20039;-62
2023/02/07 05:44:27;;;;;;;20.38;18.38;;;;;;;-1.79;94.39;96795.91;5062357;28;20044;-62
2023/02/07 05:46:52;;;;;;;28.10;25.50;;;;;;;-1.70;94.00;96799.97;5060753;28;20028;-62
2023/02/07 05:49:17;;;;;;;20.00;17.92;;;;;;;-1.16;90.74;96810.59;5058895;28;20031;-65
2023/02/07 05:51:42;;;;;;;18.65;16.85;;;;;;;-1.31;90.71;96802.41;5064503;28;20059;-71
2023/02/07 05:54:08;;;;;;;20.95;18.85;;;;;;;-1.41;91.36;96805.28;5064078;28;20063;-73
2023/02/07 05:56:33;;;;;;;19.48;17.60;;;;;;;-1.68;93.12;96826.63;5058779;28;20486;-72
2023/02/07 05:58:58;;;;;;;20.13;18.17;;;;;;;-1.91;94.28;96850.41;5060767;28;20499;-72
2023/02/07 06:01:24;;;;;;;22.10;20.00;;;;;;;-1.97;95.28;96847.97;5057987;28;20098;-72
2023/02/07 06:03:49;;;;;;;21.88;19.17;;;;;;;-1.98;95.66;96835.97;5060204;28;20111;-73
2023/02/07 06:06:15;;;;;;;20.58;18.38;;;;;;;-2.06;95.98;96844.75;5059277;28;20049;-72
2023/02/07 06:08:40;;;;;;;20.50;18.38;;;;;;;-2.16;96.71;96853.56;5063801;28;20047;-72
2023/02/07 06:11:05;;;;;;;23.00;20.00;;;;;;;-2.24;97.48;96858.91;5058454;28;20565;-61
2023/02/07 06:13:31;;;;;;;21.05;19.08;;;;;;;-2.25;97.49;96854.63;5063483;28;20051;-62
2023/02/07 06:15:56;;;;;;;21.92;19.35;;;;;;;-2.24;97.35;96863.22;5063746;28;20072;-60
2023/02/07 06:18:21;;;;;;;22.23;19.92;;;;;;;-2.32;97.88;96873.72;5059496;28;20529;-61
2023/02/07 06:20:49;;;;;;;21.38;19.10;;;;;;;-2.41;98.53;96871.34;5062582;28;20495;-62
2023/02/07 06:23:14;;;;;;;21.38;17.83;;;;;;;-2.45;98.54;96868.81;5060775;28;20032;-61
2023/02/07 06:25:40;;;;;;;22.77;20.38;;;;;;;-2.54;99.79;96866.44;5058245;28;20087;-61
2023/02/07 06:28:05;;;;;;;22.27;19.85;;;;;;;-2.59;99.40;96869.09;5055446;28;20052;-61
2023/02/07 06:30:30;;;;;;;24.98;22.38;;;;;;;-2.57;99.39;96873.38;5063923;28;20040;-73
2023/02/07 06:32:56;;;;;;;23.00;20.67;;;;;;;-2.62;99.21;96882.06;5061866;28;20040;-75
2023/02/07 06:35:21;;;;;;;22.98;20.67;;;;;;;-2.67;99.39;96889.06;5070131;28;20052;-74
2023/02/07 06:37:46;;;;;;;34.28;28.70;;;;;;;-2.65;98.76;96907.09;5062889;28;20094;-72
2023/02/07 06:40:12;;;;;;;46.47;38.50;;;;;;;-2.68;100.00;96907.97;5059524;28;20044;-72
2023/02/07 06:42:37;;;;;;;33.28;27.58;;;;;;;-2.75;100.00;96898.69;5045470;28;20044;-73
2023/02/07 06:45:03;;;;;;;26.60;23.88;;;;;;;-2.79;100.00;96899.59;5049653;28;20033;-75
2023/02/07 06:47:28;;;;;;;24.58;22.10;;;;;;;-2.80;100.00;96918.53;5069076;28;20032;-64
2023/02/07 06:49:53;;;;;;;27.73;24.50;;;;;;;-2.82;100.00;96930.59;5069469;28;20498;-62
2023/02/07 06:52:19;;;;;;;24.95;22.30;;;;;;;-2.82;100.00;96935.75;5068710;28;20579;-62
2023/02/07 06:54:45;;;;;;;42.53;33.70;;;;;;;-2.88;100.00;96937.56;5069440;28;20040;-63
2023/02/07 06:57:10;;;;;;;45.83;39.40;;;;;;;-2.95;100.00;96943.72;5067449;28;20082;-62
2023/02/07 06:59:35;;;;;;;30.45;26.48;;;;;;;-3.00;100.00;96944.69;5062666;28;20052;-62
2023/02/07 07:02:02;;;;;;;34.88;29.92;;;;;;;-3.01;100.00;96943.81;5059512;28;20047;-62
2023/02/07 07:04:28;;;;;;;29.67;26.23;;;;;;;-3.03;100.00;96951.59;5035079;28;20033;-62
2023/02/07 07:06:53;;;;;;;34.13;26.20;;;;;;;-2.95;100.00;96961.78;5052733;28;20399;-62
2023/02/07 07:09:18;;;;;;;32.85;29.30;;;;;;;-3.03;100.00;96958.47;5050889;28;20495;-63
2023/02/07 07:11:44;;;;;;;29.33;26.15;;;;;;;-3.11;100.00;96965.50;5049526;28;20029;-62
2023/02/07 07:14:10;;;;;;;26.52;23.75;;;;;;;-3.07;100.00;96972.28;5052389;28;20037;-63
2023/02/07 07:16:35;;;;;;;25.95;23.27;;;;;;;-3.04;100.00;96964.50;5055992;28;20041;-63
2023/02/07 07:19:01;;;;;;;26.17;23.30;;;;;;;-3.02;100.00;96979.06;5051269;28;20033;-63
2023/02/07 07:21:27;;;;;;;27.58;24.80;;;;;;;-2.93;100.00;96975.47;5053783;28;20067;-63
2023/02/07 07:23:53;;;;;;;28.10;25.27;;;;;;;-2.88;100.00;96983.97;5059895;28;20477;-63
2023/02/07 07:26:19;;;;;;;33.10;27.58;;;;;;;-2.83;100.00;96977.88;5071684;28;20058;-62
2023/02/07 07:28:44;;;;;;;29.30;26.25;;;;;;;-2.79;100.00;96987.25;5061380;28;20040;-75
2023/02/07 07:31:10;;;;;;;29.52;26.48;;;;;;;-2.70;100.00;96988.81;5056236;28;20483;-76
2023/02/07 07:33:36;;;;;;;34.90;31.50;;;;;;;-2.68;100.00;96985.34;5056212;28;20040;-76
2023/02/07 07:36:02;;;;;;;37.92;33.13;;;;;;;-2.77;100.00;96985.47;5050879;28;20051;-76
2023/02/07 07:38:29;;;;;;;33.08;29.80;;;;;;;-2.86;100.00;96985.66;5051279;28;20036;-74
2023/02/07 07:40:55;;;;;;;34.17;30.58;;;;;;;-2.88;100.00;96983.97;5069352;28;20040;-74
2023/02/07 07:43:21;;;;;;;31.33;27.98;;;;;;;-2.89;100.00;96979.69;5061962;28;20036;-74
2023/02/07 07:45:54;;;;;;;37.15;33.00;;;;;;;-2.80;100.00;96989.00;5062169;28;20048;-76
2023/02/07 07:48:21;;;;;;;43.45;36.38;;;;;;;-2.80;100.00;96990.69;5052366;28;20040;-62
2023/02/07 07:50:47;;;;;;;44.97;38.97;;;;;;;-2.76;100.00;96988.03;5051541;28;20040;-61
2023/02/07 07:53:12;;;;;;;51.65;39.00;;;;;;;-2.74;100.00;96985.44;5054927;28;20044;-61
2023/02/07 07:55:37;;;;;;;45.78;39.33;;;;;;;-2.76;100.00;97000.09;5067739;28;20100;-62
2023/02/07 07:58:03;;;;;;;44.67;38.75;;;;;;;-2.78;100.00;97000.13;5060067;28;20810;-63
2023/02/07 08:00:29;;;;;;;43.17;38.10;;;;;;;-2.79;100.00;96997.56;5050195;28;20461;-63
2023/02/07 08:02:54;;;;;;;47.13;38.53;;;;;;;-2.77;100.00;96994.09;5060565;28;20028;-62
2023/02/07 08:05:19;;;;;;;43.70;39.08;;;;;;;-2.77;100.00;97001.81;5062087;28;20100;-68
2023/02/07 08:07:45;;;;;;;46.40;37.80;;;;;;;-2.74;100.00;97008.66;5051804;28;20044;-63
2023/02/07 08:10:10;;;;;;;40.83;36.38;;;;;;;-2.70;100.00;97010.28;5056423;28;20510;-61
2023/02/07 08:12:35;;;;;;;39.10;34.88;;;;;;;-2.66;100.00;97009.34;5053682;28;20430;-65
2023/02/07 08:15:01;;;;;;;42.45;37.60;;;;;;;-2.66;100.00;97018.81;5059351;28;20021;-62
2023/02/07 08:17:26;;;;;;;44.10;39.33;;;;;;;-2.56;100.00;97024.63;5054052;28;20075;-63
2023/02/07 08:19:51;;;;;;;42.20;37.63;;;;;;;-2.64;100.00;97022.22;5059494;28;20044;-63
2023/02/07 08:22:17;;;;;;;36.95;32.85;;;;;;;-2.67;100.00;97017.97;5059860;28;20028;-62
2023/02/07 08:24:42;;;;;;;35.90;29.90;;;;;;;-2.64;100.00;97028.22;5067177;28;20112;-67
2023/02/07 08:27:08;;;;;;;33.90;29.63;;;;;;;-2.65;100.00;97021.38;5062885;28;20043;-65
2023/02/07 08:29:33;;;;;;;34.78;30.70;;;;;;;-2.64;100.00;97032.53;5060021;28;20486;-67
2023/02/07 08:31:58;;;;;;;34.60;30.00;;;;;;;-2.64;100.00;97028.22;5061437;28;20079;-68
2023/02/07 08:34:27;;;;;;;34.28;30.58;;;;;;;-2.62;100.00;97026.47;5066323;28;20405;-66
2023/02/07 08:36:53;;;;;;;34.80;29.65;;;;;;;-2.59;100.00;97031.56;5059769;28;20036;-67
2023/02/07 08:39:18;;;;;;;32.40;28.70;;;;;;;-2.54;100.00;97041.81;5055045;28;20449;-66
2023/02/07 08:41:44;;;;;;;33.72;29.05;;;;;;;-2.52;100.00;97034.06;5055788;28;20403;-64
2023/02/07 08:44:09;;;;;;;37.58;33.30;;;;;;;-2.48;100.00;97033.09;5054616;28;20027;-68
2023/02/07 08:46:34;;;;;;;35.05;31.23;;;;;;;-2.45;100.00;97033.03;5052801;28;20082;-68
2023/02/07 08:49:00;;;;;;;32.97;29.38;;;;;;;-2.43;100.00;97036.44;5056252;28;20112;-68
2023/02/07 08:51:25;;;;;;;33.50;29.58;;;;;;;-2.36;100.00;97038.00;5059106;28;20511;-67
2023/02/07 08:53:52;;;;;;;36.78;30.98;;;;;;;-2.02;100.00;97032.19;5065087;28;20048;-66
2023/02/07 08:56:17;;;;;;;39.75;32.75;;;;;;;-1.50;100.00;97038.84;5071775;28;20055;-67
2023/02/07 08:58:43;;;;;;;38.50;31.30;;;;;;;-1.06;97.95;97044.72;5072150;28;20498;-65
2023/02/07 09:01:10;;;;;;;40.30;33.30;;;;;;;-0.63;95.36;97035.03;5063416;28;20036;-64
2023/02/07 09:03:36;;;;;;;40.03;32.92;;;;;;;-0.24;91.68;97041.75;5059901;28;20080;-67
2023/02/07 09:06:02;;;;;;;46.03;33.25;;;;;;;0.05;90.11;97052.19;5049905;28;20557;-61
2023/02/07 09:08:27;;;;;;;38.17;29.35;;;;;;;0.31;88.99;97058.34;5047845;28;20045;-62
2023/02/07 09:10:53;;;;;;;22.58;19.42;;;;;;;0.38;85.55;97054.72;5045977;28;20036;-61
2023/02/07 09:13:18;;;;;;;21.08;18.05;;;;;;;0.58;86.26;97054.09;5050850;28;20029;-62
2023/02/07 09:15:43;;;;;;;19.80;17.83;;;;;;;0.91;84.32;97061.72;5052677;28;20047;-61
2023/02/07 09:18:09;;;;;;;24.40;15.98;;;;;;;1.19;80.39;97057.38;5054024;28;20044;-62
2023/02/07 09:20:34;;;;;;;20.35;14.55;;;;;;;1.50;78.13;97056.38;5054648;28;20033;-64
2023/02/07 09:23:18;;;;;;;18.63;15.05;;;;;;;1.81;74.76;97058.75;5058006;28;20494;-64
2023/02/07 09:25:48;;;;;;;14.52;12.20;;;;;;;2.17;71.71;97065.28;5054683;28;20566;-72
2023/02/07 09:28:14;;;;;;;15.23;11.13;;;;;;;2.38;69.23;97062.78;5060929;28;20068;-72
2023/02/07 09:30:43;;;;;;;15.93;10.60;;;;;;;2.57;66.29;97061.19;5064841;28;20126;-70
2023/02/07 09:33:11;;;;;;;12.65;10.20;;;;;;;2.81;68.29;97066.34;5063809;28;20033;-70
2023/02/07 09:35:38;;;;;;;8.88;7.97;;;;;;;3.05;64.94;97066.28;5057028;28;20240;-71
2023/02/07 09:38:03;;;;;;;8.32;7.40;;;;;;;3.32;61.65;97071.25;5059449;28;20418;-69
2023/02/07 09:40:32;;;;;;;7.10;6.50;;;;;;;3.43;58.50;97069.06;5069905;28;20032;-63
2023/02/07 09:43:10;;;;;;;7.68;7.00;;;;;;;3.65;56.85;97077.72;5069389;28;20040;-61
2023/02/07 09:45:41;;;;;;;8.75;7.95;;;;;;;4.09;55.14;97081.91;5059356;28;20063;-63
2023/02/07 09:48:16;;;;;;;7.93;6.70;;;;;;;4.08;55.91;97088.03;5056467;28;20033;-63
2023/02/07 09:50:53;;;;;;;6.78;6.28;;;;;;;4.33;53.91;97084.38;5064766;28;20055;-64
2023/02/07 09:53:26;;;;;;;7.43;6.75;;;;;;;4.42;52.28;97083.94;5058025;28;20036;-64
2023/02/07 09:55:56;;;;;;;7.15;6.45;;;;;;;4.54;50.57;97087.75;5055154;28;20132;-64
2023/02/07 09:58:46;;;;;;;8.23;6.68;;;;;;;4.78;53.61;97093.63;5062527;28;20037;-63
2023/02/07 10:01:20;;;;;;;5.57;4.88;;;;;;;5.04;52.44;97096.75;5064062;28;20104;-64
2023/02/07 10:04:12;;;;;;;4.45;4.10;;;;;;;5.16;48.47;97093.53;5058398;28;20037;-61
2023/02/07 10:06:42;;;;;;;4.57;3.92;;;;;;;5.36;49.38;97096.94;5059654;28;20036;-60
2023/02/07 10:09:13;;;;;;;4.35;3.40;;;;;;;5.21;50.80;97093.31;5052552;28;20037;-61
2023/02/07 10:11:48;;;;;;;5.93;3.72;;;;;;;5.15;47.89;97089.25;5058202;28;20040;-61
2023/02/07 10:14:27;;;;;;;3.47;3.03;;;;;;;5.26;49.26;97087.88;5049729;28;20457;-60
2023/02/07 10:17:14;;;;;;;3.60;3.30;;;;;;;5.37;45.37;97090.81;5050263;28;20029;-60
2023/02/07 10:19:53;;;;;;;4.53;2.78;;;;;;;5.28;47.83;97083.44;5056022;28;20124;-67
2023/02/07 10:22:34;;;;;;;5.00;3.53;;;;;;;5.36;48.13;97081.28;5062058;28;20510;-60
2023/02/07 10:25:21;;;;;;;5.20;4.75;;;;;;;5.44;45.73;97075.69;5057319;28;20430;-69
2023/02/07 10:27:58;;;;;;;6.03;5.53;;;;;;;5.55;44.09;97081.25;5053593;28;20048;-69
2023/02/07 10:30:27;;;;;;;15.55;4.55;;;;;;;5.74;44.85;97077.66;5055524;28;20028;-70
2023/02/07 10:32:58;;;;;;;4.82;4.43;;;;;;;5.77;43.79;97068.84;5056230;28;20067;-69
2023/02/07 10:35:32;;;;;;;5.15;4.75;;;;;;;5.97;43.98;97071.28;5055868;28;20051;-68
2023/02/07 10:38:01;;;;;;;5.38;4.90;;;;;;;5.81;43.58;97065.16;5055848;28;20345;-67
2023/02/07 10:40:42;;;;;;;5.15;4.75;;;;;;;5.97;45.34;97066.06;5054557;28;20071;-68
2023/02/07 10:43:21;;;;;;;4.90;4.43;;;;;;;6.03;46.12;97070.16;5054047;28;20025;-64
2023/02/07 10:45:47;;;;;;;8.20;4.25;;;;;;;6.19;45.45;97062.34;5051937;28;20040;-63
2023/02/07 10:48:14;;;;;;;5.60;4.85;;;;;;;6.45;42.90;97052.25;5052253;28;20037;-64
2023/02/07 10:50:40;;;;;;;7.50;5.28;;;;;;;6.70;42.37;97059.63;5055094;28;20028;-63
2023/02/07 10:53:05;;;;;;;5.22;4.03;;;;;;;6.85;43.01;97062.31;5052031;28;20044;-63
2023/02/07 10:55:48;;;;;;;5.55;4.90;;;;;;;7.03;41.08;97056.03;5052190;28;20041;-63
2023/02/07 10:58:16;;;;;;;8.25;5.13;;;;;;;7.29;42.18;97052.88;5062159;28;20036;-66
2023/02/07 11:00:47;;;;;;;6.15;5.07;;;;;;;7.41;39.69;97057.44;5074912;28;20032;-62
2023/02/07 11:03:19;;;;;;;5.07;4.53;;;;;;;7.70;41.52;97054.88;5063597;28;20040;-62
2023/02/07 11:06:03;;;;;;;5.40;4.05;;;;;;;7.92;40.00;97048.34;5067889;28;20063;-62
2023/02/07 11:08:35;;;;;;;5.03;3.38;;;;;;;8.07;41.47;97056.22;5067936;28;20078;-61
2023/02/07 11:11:24;;;;;;;2.90;2.80;;;;;;;8.02;41.13;97051.28;5068655;28;20037;-61
2023/02/07 11:13:54;;;;;;;5.85;3.33;;;;;;;8.06;39.76;97054.53;5068747;28;20036;-62
2023/02/07 11:16:22;;;;;;;3.25;3.05;;;;;;;8.12;40.33;97043.69;5067440;28;20562;-60
2023/02/07 11:19:01;;;;;;;3.60;3.30;;;;;;;8.29;40.69;97055.78;5068648;28;20074;-65
2023/02/07 11:21:32;;;;;;;3.85;3.33;;;;;;;8.14;34.60;97047.88;5066836;28;20032;-69
2023/02/07 11:24:13;;;;;;;5.97;3.50;;;;;;;8.29;34.55;97045.28;5068108;28;20037;-69
2023/02/07 11:26:49;;;;;;;10.70;3.65;;;;;;;8.37;34.26;97036.94;5064532;28;20569;-69
2023/02/07 11:29:17;;;;;;;4.75;3.60;;;;;;;8.43;33.97;97037.41;5050515;28;20171;-67
2023/02/07 11:31:44;;;;;;;10.38;3.45;;;;;;;8.82;30.09;97047.28;5061883;28;20120;-66